Flight Track Log - Related Links

Times and Time Zones

All times are in EST time to prevent confusion due to time zone crossing. See the UPS2981 flight status page for this flight to view local times or setup timezone preferences in your user account.

Time Position Orientation Groundspeed Altitude Reporting Facility
EST Latitude Longitude Course Direction KTS MPH feet Rate Location/Type
Fri 10:11:46 AM 47.5094 -122.2840 148° Southeast 173 199 1,200  Level FlightAware ADS-B
Fri 10:11:52 AM 47.5052 -122.2800 147° Southeast 181 208 1,400 1,875 Climbing FlightAware ADS-B
Fri 10:12:02 AM 47.4979 -122.2740 151° Southeast 192 221 1,700 1,765 Climbing FlightAware ADS-B
Fri 10:12:09 AM 47.4920 -122.2690 150° Southeast 205 236 1,900 1,500 Climbing FlightAware ADS-B
Fri 10:12:18 AM 47.4843 -122.2630 152° Southeast 222 255 2,100 1,667 Climbing FlightAware ADS-B
Fri 10:12:27 AM 47.4757 -122.2560 151° Southeast 236 272 2,400 1,846 Climbing FlightAware ADS-B
Fri 10:12:31 AM 47.4720 -122.2530 151° Southeast 240 276 2,500 2,250 Climbing FlightAware ADS-B
Fri 10:12:35 AM 47.4684 -122.2490 143° Southeast 242 278 2,700 3,429 Climbing FlightAware ADS-B
Fri 10:12:38 AM 47.4657 -122.2460 143° Southeast 242 278 2,900 3,429 Climbing FlightAware ADS-B
Fri 10:12:42 AM 47.4624 -122.2420 141° Southeast 240 276 3,100 3,750 Climbing FlightAware ADS-B
Fri 10:12:46 AM 47.4595 -122.2370 131° Southeast 239 275 3,400 4,500 Climbing FlightAware ADS-B
Fri 10:12:50 AM 47.4574 -122.2320 122° Southeast 238 274 3,700 4,286 Climbing FlightAware ADS-B
Fri 10:12:53 AM 47.4554 -122.2270 121° Southeast 236 272 3,900 4,286 Climbing FlightAware ADS-B
Fri 10:12:57 AM 47.4537 -122.2210 113° Southeast 236 272 4,200 3,750 Climbing FlightAware ADS-B
Fri 10:13:01 AM 47.4525 -122.2160 110° East 239 275 4,400 3,429 Climbing FlightAware ADS-B
Fri 10:13:04 AM 47.4516 -122.2100 103° East 243 280 4,600 2,571 Climbing FlightAware ADS-B
Fri 10:13:08 AM 47.4511 -122.2040 97° East 250 288 4,700 1,636 Climbing FlightAware ADS-B
Fri 10:13:15 AM 47.4505 -122.1910 94° East 259 298 4,900 2,571 Climbing FlightAware ADS-B
Fri 10:13:29 AM 47.4497 -122.1660 93° East 267 307 5,600 3,231 Climbing FlightAware ADS-B
Fri 10:13:41 AM 47.4487 -122.1440 94° East 271 312 6,300 3,750 Climbing FlightAware ADS-B
Fri 10:13:53 AM 47.4475 -122.1220 95° East 271 312 7,100 3,462 Climbing FlightAware ADS-B
Fri 10:14:07 AM 47.4462 -122.0960 94° East 279 321 7,800 2,897 Climbing FlightAware ADS-B
Fri 10:14:22 AM 47.4452 -122.0670 93° East 286 329 8,500 2,516 Climbing FlightAware ADS-B
Fri 10:14:38 AM 47.4441 -122.0360 93° East 298 343 9,100 2,400 Climbing FlightAware ADS-B
Fri 10:14:47 AM 47.4435 -122.0160 93° East 304 350 9,500 2,100 Climbing FlightAware ADS-B
Fri 10:15:18 AM 47.4408 -121.9490 93° East 342 394 10,500 1,574 Climbing FlightAware ADS-B
Fri 10:15:48 AM 47.4372 -121.8740 94° East 391 450 11,100 2,066 Climbing FlightAware ADS-B
Fri 10:16:19 AM 47.4330 -121.7890 94° East 413 475 12,600 3,344 Climbing FlightAware ADS-B
Fri 10:16:49 AM 47.4297 -121.7050 93° East 426 490 14,500 3,500 Climbing FlightAware ADS-B
Fri 10:17:19 AM 47.4282 -121.6140 91° East 445 512 16,100 3,246 Climbing FlightAware ADS-B
Fri 10:17:50 AM 47.4269 -121.5200 91° East 459 528 17,800 3,344 Climbing FlightAware ADS-B
Fri 10:18:20 AM 47.4255 -121.4240 91° East 471 542 19,500 3,200 Climbing FlightAware ADS-B
Fri 10:18:50 AM 47.4240 -121.3260 91° East 481 554 21,000 2,800 Climbing FlightAware ADS-B
Fri 10:19:20 AM 47.4224 -121.2250 91° East 494 568 22,300 2,800 Climbing FlightAware ADS-B
Fri 10:19:50 AM 47.4226 -121.1240 90° East 499 574 23,800 2,754 Climbing FlightAware ADS-B
Fri 10:20:21 AM 47.4243 -121.0190 89° East 511 588 25,100 2,361 Climbing FlightAware ADS-B
Fri 10:20:51 AM 47.4259 -120.9130 89° East 522 601 26,200 2,300 Climbing FlightAware ADS-B
Fri 10:21:21 AM 47.4270 -120.8040 89° East 530 610 27,400 2,400 Climbing FlightAware ADS-B
Fri 10:21:56 AM 47.4280 -120.6800 89° East 537 618 28,800 2,308 Climbing FlightAware ADS-B
Fri 10:22:26 AM 47.4284 -120.5680 90° East 544 626 29,900 2,066 Climbing FlightAware ADS-B
Fri 10:22:57 AM 47.4289 -120.4530 90° East 551 634 30,900 2,806 Climbing FlightAware ADS-B
Fri 10:23:28 AM 47.4294 -120.3380 90° East 533 613 32,800 3,443 Climbing FlightAware ADS-B
Fri 10:23:58 AM 47.4298 -120.2310 90° East 516 594 34,400 2,262 Climbing FlightAware ADS-B
Fri 10:24:29 AM 47.4297 -120.1220 90° East 524 603 35,100 590 Climbing FlightAware ADS-B
Fri 10:24:59 AM 47.4303 -120.0130 89° East 538 619 35,000 -97 Descending FlightAware ADS-B
Fri 10:25:31 AM 47.4302 -119.8970 90° East 538 619 35,000 97 Level FlightAware ADS-B
Fri 10:26:01 AM 47.4302 -119.7850 90° East 540 621 35,100 100 Climbing FlightAware ADS-B
Fri 10:26:31 AM 47.4299 -119.6740 90° East 543 625 35,100  Level FlightAware ADS-B
Fri 10:27:01 AM 47.4297 -119.5620 90° East 545 627 35,100 -98 Level FlightAware ADS-B
Fri 10:27:32 AM 47.4293 -119.4490 90° East 533 613 35,000 -98 Descending FlightAware ADS-B
Fri 10:28:02 AM 47.4287 -119.3410 90° East 528 608 35,000  Level FlightAware ADS-B
Fri 10:28:37 AM 47.4279 -119.2170 91° East 528 608 35,000 92 Level FlightAware ADS-B
Fri 10:29:07 AM 47.4275 -119.1080 90° East 530 610 35,100  Climbing FlightAware ADS-B
Fri 10:30:18 AM 47.4256 -118.8628 90° East 536 617 35,000 -45 Descending Seattle Center
Fri 10:31:19 AM 47.4233 -118.6436 91° East 536 617 35,000  Level Seattle Center
Fri 10:32:20 AM 47.4206 -118.4244 91° East 535 616 35,000  Level Seattle Center
Fri 10:33:21 AM 47.4175 -118.1989 91° East 534 615 35,000  Level Seattle Center
Fri 10:34:22 AM 47.4139 -117.9811 91° East 534 615 35,000  Level Seattle Center
Fri 10:35:23 AM 47.4106 -117.7703 91° East 534 615 35,000  Level Seattle Center
Fri 10:36:23 AM 47.4064 -117.5531 92° East 533 613 35,000  Level Seattle Center
Fri 10:37:24 AM 47.4014 -117.3369 92° East 534 615 35,000  Level Seattle Center
Fri 10:38:25 AM 47.3961 -117.1153 92° East 535 616 35,000  Level Seattle Center
Fri 10:39:26 AM 47.3897 -116.8661 92° East 533 613 35,000  Level Seattle Center
Fri 10:40:27 AM 47.3839 -116.6508 92° East 532 612 35,000  Level Seattle Center
Fri 10:41:28 AM 47.3778 -116.4344 92° East 537 618 35,000  Level Seattle Center
Fri 10:42:28 AM 47.3708 -116.2178 93° East 532 612 35,000  Level Seattle Center
Fri 10:43:29 AM 47.3636 -116.0006 93° East 532 612 35,000  Level Seattle Center
Fri 10:44:30 AM 47.3561 -115.7839 93° East 531 611 35,000  Level Seattle Center
Fri 10:45:31 AM 47.3475 -115.5572 93° East 532 612 35,000  Level Seattle Center
Fri 10:46:32 AM 47.3392 -115.3403 93° East 535 616 35,000  Level Seattle Center
Fri 10:47:33 AM 47.3303 -115.1214 93° East 540 621 35,000  Level Seattle Center
Fri 10:48:34 AM 47.3208 -114.9008 94° East 544 626 35,000  Level Seattle Center
Fri 10:49:35 AM 47.3111 -114.6806 94° East 546 628 35,000  Level Seattle Center
Fri 10:50:35 AM 47.3006 -114.4586 94° East 549 632 35,000  Level Seattle Center
Fri 10:51:36 AM 47.2875 -114.1917 94° East 549 632 35,000  Level Seattle Center
Fri 10:52:37 AM 47.2761 -113.9694 94° East 550 633 35,000  Level Seattle Center
Fri 10:53:38 AM 47.2644 -113.7472 94° East 548 631 35,000  Level Seattle Center
Fri 10:54:58 AM 47.2506 -113.4819 94° East 549 632 35,000  Level Salt Lake Center
Fri 10:55:59 AM 47.2358 -113.2194 95° East 543 625 35,000  Level Salt Lake Center
Fri 10:57:01 AM 47.2225 -113.0039 95° East 535 616 35,000  Level Salt Lake Center
Fri 10:58:03 AM 47.2094 -112.7939 95° East 534 615 35,000  Level Salt Lake Center
Fri 10:59:05 AM 47.1956 -112.5797 95° East 531 611 35,000  Level Salt Lake Center
Fri 11:00:07 AM 47.1822 -112.3644 95° East 531 611 35,000  Level Salt Lake Center
Fri 11:01:08 AM 47.1672 -112.1478 96° East 536 617 35,000  Level Salt Lake Center
Fri 11:02:10 AM 47.1492 -111.8867 96° East 539 620 35,000  Level Salt Lake Center
Fri 11:03:12 AM 47.1336 -111.6717 96° East 535 616 35,000  Level Salt Lake Center
Fri 11:04:14 AM 47.1178 -111.4564 96° East 536 617 35,000  Level Salt Lake Center
Fri 11:05:16 AM 47.1022 -111.2433 96° East 533 613 35,000  Level Salt Lake Center
Fri 11:06:17 AM 47.0853 -111.0281 97° East 536 617 35,000  Level Salt Lake Center
Fri 11:07:19 AM 47.0644 -110.7706 97° East 537 618 35,000  Level Salt Lake Center
Fri 11:08:21 AM 47.0472 -110.5572 97° East 533 613 35,000  Level Salt Lake Center
Fri 11:09:23 AM 47.0300 -110.3431 97° East 532 612 35,000  Level Salt Lake Center
Fri 11:10:25 AM 47.0133 -110.1278 96° East 534 615 35,000  Level Salt Lake Center
Fri 11:11:26 AM 46.9925 -109.9125 98° East 537 618 35,000  Level Salt Lake Center
Fri 11:12:28 AM 46.9633 -109.7008 101° East 536 617 35,000  Level Salt Lake Center
Fri 11:13:30 AM 46.9278 -109.4481 102° East 533 613 35,000  Level Salt Lake Center
Fri 11:14:32 AM 46.8983 -109.2361 101° East 534 615 35,000  Level Salt Lake Center
Fri 11:15:34 AM 46.8642 -109.0067 102° East 533 613 35,000  Level Salt Lake Center
Fri 11:16:36 AM 46.8325 -108.7967 102° East 524 603 35,000 48 Level Salt Lake Center
Fri 11:17:38 AM 46.8022 -108.5817 102° East 536 617 35,100 49 Climbing Salt Lake Center
Fri 11:18:39 AM 46.7708 -108.3706 102° East 535 616 35,100 -49 Level Salt Lake Center
Fri 11:19:41 AM 46.7397 -108.1594 102° East 535 616 35,000 -48 Descending Salt Lake Center
Fri 11:20:43 AM 46.7075 -107.9528 103° East 528 608 35,000 48 Level Salt Lake Center
Fri 11:21:45 AM 46.6761 -107.7458 102° East 525 604 35,100  Climbing Salt Lake Center
Fri 11:22:47 AM 46.6369 -107.4958 103° East 527 606 35,000 -48 Descending Salt Lake Center
Fri 11:23:49 AM 46.6042 -107.2917 103° East 522 601 35,000 48 Level Salt Lake Center
Fri 11:24:51 AM 46.5725 -107.0864 103° East 521 600 35,100 48 Climbing Salt Lake Center
Fri 11:25:53 AM 46.5392 -106.8814 103° East 521 600 35,100  Level Salt Lake Center
Fri 11:26:55 AM 46.5047 -106.6769 104° East 522 601 35,100  Level Salt Lake Center
Fri 11:27:57 AM 46.4694 -106.4700 104° East 525 604 35,100  Level Salt Lake Center
Fri 11:28:59 AM 46.4344 -106.2653 104° East 525 604 35,100  Level Salt Lake Center
Fri 11:30:01 AM 46.3928 -106.0211 104° East 523 602 35,100  Level Salt Lake Center
Fri 11:31:02 AM 46.3467 -105.8258 109° East 517 595 35,100  Level Salt Lake Center
Fri 11:32:04 AM 46.2914 -105.6342 113° Southeast 514 592 35,100 -48 Level Salt Lake Center
Fri 11:33:06 AM 46.2364 -105.4408 112° Southeast 518 596 35,000  Descending Salt Lake Center
Fri 11:34:08 AM 46.1803 -105.2481 113° Southeast 520 598 35,100 48 Climbing Salt Lake Center
Fri 11:35:10 AM 46.1239 -105.0550 113° Southeast 521 600 35,100  Level Salt Lake Center
Fri 11:36:12 AM 46.0669 -104.8631 113° Southeast 522 601 35,100  Level Salt Lake Center
Fri 11:37:14 AM 45.9989 -104.6300 113° Southeast 525 604 35,100 -48 Level Salt Lake Center
Fri 11:38:16 AM 45.9467 -104.4583 114° Southeast 525 604 35,000 -48 Descending Salt Lake Center
Fri 11:39:18 AM 45.8903 -104.2678 113° Southeast 523 602 35,000  Level Salt Lake Center
Fri 11:40:20 AM 45.8211 -104.0397 113° Southeast 522 601 35,000  Level Salt Lake Center
Fri 11:41:22 AM 45.7633 -103.8506 114° Southeast 521 600 35,000  Level Salt Lake Center
Fri 11:42:24 AM 45.7042 -103.6625 114° Southeast 521 600 35,000  Level Salt Lake Center
Fri 11:43:26 AM 45.6464 -103.4744 114° Southeast 519 597 35,000  Level Salt Lake Center
Fri 11:44:28 AM 45.5881 -103.2878 114° Southeast 518 596 35,000  Level Salt Lake Center
Fri 11:45:30 AM 45.5294 -103.0989 114° Southeast 521 600 35,000  Level Salt Lake Center
Fri 11:46:32 AM 45.4572 -102.8744 115° Southeast 521 600 35,000  Level Salt Lake Center
Fri 11:47:34 AM 45.3978 -102.6878 114° Southeast 520 598 35,000  Level Salt Lake Center
Fri 11:48:36 AM 45.3389 -102.5047 115° Southeast 516 594 35,000  Level Salt Lake Center
Fri 11:49:38 AM 45.2781 -102.3211 115° Southeast 515 593 35,000  Level Salt Lake Center
Fri 11:50:40 AM 45.2197 -102.1381 114° Southeast 514 592 35,000  Level Salt Lake Center
Fri 11:51:42 AM 45.1586 -101.9564 115° Southeast 512 589 35,000  Level Salt Lake Center
Fri 11:53:05 AM 45.0750 -101.6997 115° Southeast 514 592 35,000 42 Level Minneapolis Center
Fri 11:54:06 AM 45.0147 -101.4742 111° Southeast 517 595 35,100 49 Climbing Minneapolis Center
Fri 11:55:08 AM 44.9647 -101.2853 110° East 520 598 35,100  Level Minneapolis Center
Fri 11:56:09 AM 44.9131 -101.0908 111° Southeast 522 601 35,100  Level Minneapolis Center
Fri 11:57:11 AM 44.8581 -100.8878 111° Southeast 523 602 35,100  Level Minneapolis Center
Fri 11:58:12 AM 44.8058 -100.6944 111° Southeast 525 604 35,100  Level Minneapolis Center
Fri 11:59:14 AM 44.7533 -100.5031 111° Southeast 526 605 35,100  Level Minneapolis Center
Fri 12:00:15 PM 44.7006 -100.3119 111° Southeast 526 605 35,100 -49 Level Minneapolis Center
Fri 12:01:17 PM 44.6478 -100.1231 111° Southeast 525 604 35,000 -49 Descending Minneapolis Center
Fri 12:02:18 PM 44.5944 -99.9322 111° Southeast 524 603 35,000 49 Level Minneapolis Center
Fri 12:03:20 PM 44.5411 -99.7433 112° Southeast 524 603 35,100 49 Climbing Minneapolis Center
Fri 12:04:21 PM 44.4875 -99.5556 112° Southeast 523 602 35,100  Level Minneapolis Center
Fri 12:05:23 PM 44.4231 -99.3306 112° Southeast 522 601 35,100 -48 Level Minneapolis Center
Fri 12:06:25 PM 44.3683 -99.1414 112° Southeast 521 600 35,000  Descending Minneapolis Center
Fri 12:07:26 PM 44.3142 -98.9558 112° Southeast 522 601 35,100 49 Climbing Minneapolis Center
Fri 12:08:28 PM 44.2592 -98.7689 112° Southeast 523 602 35,100  Level Minneapolis Center
Fri 12:09:29 PM 44.2064 -98.5903 112° Southeast 522 601 35,100  Level Minneapolis Center
Fri 12:10:31 PM 44.1508 -98.4039 113° Southeast 523 602 35,100  Level Minneapolis Center
Fri 12:11:33 PM 44.0839 -98.1811 113° Southeast 523 602 35,100  Level Minneapolis Center
Fri 12:12:34 PM 44.0278 -97.9956 113° Southeast 523 602 35,100 -49 Level Minneapolis Center
Fri 12:13:36 PM 43.9708 -97.8103 113° Southeast 523 602 35,000  Descending Minneapolis Center
Fri 12:14:38 PM 43.9142 -97.6256 113° Southeast 524 603 35,100 49 Climbing Minneapolis Center
Fri 12:15:39 PM 43.8572 -97.4406 113° Southeast 525 604 35,100  Level Minneapolis Center
Fri 12:16:41 PM 43.7994 -97.2561 113° Southeast 526 605 35,100  Level Minneapolis Center
Fri 12:17:43 PM 43.7300 -97.0350 113° Southeast 527 606 35,100  Level Minneapolis Center
Fri 12:23:45 PM 43.3317 -95.9486 113° Southeast 524 603 35,100 -15 Level FlightAware ADS-B (LPVM)
Fri 12:24:16 PM 43.2957 -95.8564 118° Southeast 524 603 35,000  Descending FlightAware ADS-B (LPVM)
Fri 12:25:04 PM 43.2413 -95.7164 118° Southeast 523 602 35,100  Climbing FlightAware ADS-B (LPVM)
Fri 12:26:33 PM 43.1336 -95.4712 121° Southeast 516 594 35,000  Descending FlightAware ADS-B (LPVM)
Fri 12:27:41 PM 43.0213 -95.3044 133° Southeast 515 593 35,100 59 Climbing FlightAware ADS-B (LPVM)
Fri 12:28:14 PM 42.9679 -95.2241 132° Southeast 514 592 35,100  Level FlightAware ADS-B (LPVM)
Fri 12:28:55 PM 42.9092 -95.1357 132° Southeast 515 593 35,100 -77 Level FlightAware ADS-B (LPVM)
Fri 12:29:32 PM 42.8443 -95.0377 132° Southeast 515 593 35,000 -55 Descending FlightAware ADS-B (LPVM)
Fri 12:30:45 PM 42.7495 -94.8389 123° Southeast 525 604 35,000  Level FlightAware ADS-B (LPVM)
Fri 12:31:30 PM 42.7009 -94.7053 116° Southeast 525 604 35,000 55 Level FlightAware ADS-B
Fri 12:32:35 PM 42.6381 -94.5315 116° Southeast 526 605 35,100 58 Climbing FlightAware ADS-B
Fri 12:33:14 PM 42.5904 -94.4017 117° Southeast 527 606 35,100  Level FlightAware ADS-B
Fri 12:33:53 PM 42.5499 -94.2907 116° Southeast 529 609 35,100  Level FlightAware ADS-B
Fri 12:34:26 PM 42.5146 -94.1948 117° Southeast 528 608 35,100  Level FlightAware ADS-B
Fri 12:35:34 PM 42.4368 -93.9846 117° Southeast 526 605 35,100  Level FlightAware ADS-B
Fri 12:36:14 PM 42.3977 -93.8797 117° Southeast 526 605 35,100  Level FlightAware ADS-B
Fri 12:36:55 PM 42.3722 -93.8114 117° Southeast 525 604 35,100 -50 Level FlightAware ADS-B
Fri 12:38:13 PM 42.2628 -93.5192 117° Southeast 526 605 35,000  Descending FlightAware ADS-B
Fri 12:39:36 PM 42.1708 -93.2769 117° Southeast 526 605 35,100 43 Climbing FlightAware ADS-B (LPVM)
Fri 12:40:33 PM 42.1708 -93.2769 117° Southeast 528 608 35,100 -63 Level FlightAware ADS-B (LPVM)
Fri 12:41:11 PM 42.1708 -93.2769 117° Southeast 528 608 35,000  Descending FlightAware ADS-B (LPVM)
Fri 12:43:48 PM 41.8870 -92.5405 117° Southeast 535 616 35,100 32 Climbing FlightAware ADS-B (LPVM)
Fri 12:44:18 PM 41.8553 -92.4594 118° Southeast 535 616 35,100  Level FlightAware ADS-B (LPVM)
Fri 12:44:52 PM 41.8133 -92.3526 118° Southeast 535 616 35,100  Level FlightAware ADS-B (SBMG / MGF)
Fri 12:45:27 PM 41.7766 -92.2592 118° Southeast 536 617 35,100  Level FlightAware ADS-B (SBMG / MGF)
Fri 12:46:05 PM 41.7321 -92.1466 118° Southeast 535 616 35,100  Level FlightAware ADS-B (SBMG / MGF)
Fri 12:46:37 PM 41.6944 -92.0514 118° Southeast 534 615 35,100  Level FlightAware ADS-B (LPVM)
Fri 12:47:19 PM 41.6483 -91.9357 118° Southeast 533 613 35,100  Level FlightAware ADS-B (SBMG / MGF)
Fri 12:48:11 PM 41.5829 -91.7721 118° Southeast 532 612 35,100  Level FlightAware ADS-B (SBMG / MGF)
Fri 12:49:03 PM 41.5255 -91.6293 118° Southeast 531 611 35,100  Level FlightAware ADS-B (SBMG / MGF)
Fri 12:49:46 PM 41.4717 -91.5022 119° Southeast 531 611 35,100 -73 Level FlightAware ADS-B (SBMG / MGF)
Fri 12:50:25 PM 41.4232 -91.3921 120° Southeast 531 611 35,000  Descending FlightAware ADS-B (SBMG / MGF)
Fri 12:51:24 PM 41.3505 -91.2267 120° Southeast 531 611 35,100 48 Climbing FlightAware ADS-B (SBMG / MGF)
Fri 12:52:31 PM 41.2703 -91.0443 120° Southeast 532 612 35,100  Level FlightAware ADS-B (SBMG / MGF)
Fri 12:53:01 PM 41.2703 -91.0443 120° Southeast 533 613 35,100  Level FlightAware ADS-B (SBMG / MGF)
Fri 12:53:45 PM 41.1807 -90.8414 120° Southeast 535 616 35,100 -66 Level FlightAware ADS-B (SBMG / MGF)
Fri 12:54:32 PM 41.1228 -90.7114 120° Southeast 534 615 35,000 -56 Descending Chicago Center
Fri 12:55:33 PM 41.0500 -90.5481 121° Southeast 533 613 35,000 27 Level Chicago Center
Fri 12:58:15 PM 40.8340 -90.0701 121° Southeast 532 612 35,100 13 Climbing FlightAware ADS-B
Fri 01:03:18 PM 40.4478 -89.2330 121° Southeast 540 621 35,100  Level FlightAware ADS-B
Fri 01:03:48 PM 40.4030 -89.1371 122° Southeast 541 623 35,100 -56 Level FlightAware ADS-B
Fri 01:05:06 PM 40.3143 -88.9492 122° Southeast 541 623 35,000 -43 Descending FlightAware ADS-B
Fri 01:06:07 PM 40.2705 -88.8570 122° Southeast 541 623 35,000 -1,418 Level FlightAware ADS-B
Fri 01:08:08 PM 40.0609 -88.4173 122° Southeast 550 633 30,700 -2,593 Descending FlightAware ADS-B
Fri 01:08:49 PM 40.0109 -88.3134 122° Southeast 557 641 28,000 -2,700 Descending FlightAware ADS-B
Fri 01:09:28 PM 39.9532 -88.1937 122° Southeast 536 617 27,100 -667 Descending FlightAware ADS-B
Fri 01:10:10 PM 39.9104 -88.1050 122° Southeast 534 615 27,100 -66 Level FlightAware ADS-B
Fri 01:10:59 PM 39.8340 -87.9486 122° Southeast 544 626 27,000 -67 Descending FlightAware ADS-B
Fri 01:11:40 PM 39.7794 -87.8369 122° Southeast 539 620 27,000 77 Level FlightAware ADS-B
Fri 01:12:17 PM 39.7274 -87.7310 123° Southeast 548 631 27,100 75 Climbing FlightAware ADS-B
Fri 01:13:00 PM 39.6675 -87.6093 123° Southeast 567 652 27,100  Level FlightAware ADS-B
Fri 01:13:39 PM 39.6236 -87.5200 122° Southeast 559 643 27,100 -886 Level FlightAware ADS-B
Fri 01:14:28 PM 39.5457 -87.3626 123° Southeast 545 627 25,800 -2,386 Descending FlightAware ADS-B
Fri 01:15:02 PM 39.4984 -87.2720 124° Southeast 518 596 23,800 -3,138 Descending FlightAware ADS-B
Fri 01:15:33 PM 39.4497 -87.2009 132° Southeast 506 582 22,400 -2,250 Descending FlightAware ADS-B
Fri 01:16:14 PM 39.3816 -87.1148 136° Southeast 487 560 21,100 -832 Descending FlightAware ADS-B
Fri 01:17:14 PM 39.2964 -87.0103 136° Southeast 489 563 21,000 -47 Descending Chicago Center
Fri 01:18:23 PM 39.1778 -86.8653 137° Southeast 491 565 21,000 -275 Level Indianapolis Center
Fri 01:19:25 PM 39.0811 -86.7469 136° Southeast 491 565 20,400 -1,585 Descending Indianapolis Center
Fri 01:25:08 PM 38.5894 -86.1528 136° Southeast 331 381 10,300 -1,714 Descending FlightAware ADS-B
Fri 01:25:29 PM 38.5629 -86.1284 144° Southeast 310 357 10,000 -1,135 Descending FlightAware ADS-B
Fri 01:25:45 PM 38.5489 -86.1190 152° Southeast 307 353 9,600 -1,421 Descending FlightAware ADS-B
Fri 01:26:07 PM 38.5149 -86.0991 155° Southeast 306 352 9,100 -1,375 Descending FlightAware ADS-B
Fri 01:26:33 PM 38.4812 -86.0800 156° South 307 353 8,500 -1,429 Descending FlightAware ADS-B
Fri 01:27:10 PM 38.4336 -86.0531 156° South 303 349 7,600 -1,279 Descending FlightAware ADS-B
Fri 01:27:34 PM 38.4025 -86.0357 156° South 298 343 7,200 -1,125 Descending FlightAware ADS-B
Fri 01:27:58 PM 38.3723 -86.0185 156° South 294 338 6,700 -1,102 Descending FlightAware ADS-B
Fri 01:28:23 PM 38.3451 -85.9944 145° Southeast 301 346 6,300 -973 Descending FlightAware ADS-B
Fri 01:28:35 PM 38.3374 -85.9746 116° Southeast 305 351 6,100 -514 Descending FlightAware ADS-B
Fri 01:28:58 PM 38.3291 -85.9352 105° East 301 346 6,000 -125 Descending FlightAware ADS-B
Fri 01:29:23 PM 38.3195 -85.8923 106° East 310 357 6,000  Level FlightAware ADS-B
Fri 01:29:46 PM 38.3107 -85.8522 106° East 305 351 6,000  Level FlightAware ADS-B
Fri 01:30:10 PM 38.3014 -85.8113 106° East 310 357 6,000  Level FlightAware ADS-B
Fri 01:30:25 PM 38.2966 -85.7904 106° East 311 358 6,000  Level FlightAware ADS-B
Fri 01:30:41 PM 38.2899 -85.7610 106° East 302 348 6,000  Level FlightAware ADS-B
Fri 01:31:48 PM 38.2681 -85.6653 106° East 304 350 6,000 -419 Level Indianapolis Center
Fri 01:32:50 PM 38.2539 -85.5914 104° East 245 282 5,100 -976 Descending Indianapolis Center
Fri 01:33:51 PM 38.2275 -85.5106 113° Southeast 217 250 4,000 -537 Descending Indianapolis Center
Fri 01:34:53 PM 38.2056 -85.4483 114° Southeast 212 244 4,000  Level Indianapolis Center
Fri 01:37:31 PM 38.1000 -85.3667 149° Southeast 148 170 4,000 -312 Level Louisville TRACON
Fri 01:40:01 PM 38.1000 -85.5000 270° West 157 181 2,400 -400 Descending Louisville TRACON
Fri 01:42:16 PM 38.1333 -85.6000 293° West 116 133 2,100 -289 Descending Louisville TRACON
Fri 01:44:31 PM 38.1667 -85.7000 293° West 112 129 1,100 -444 Descending Louisville TRACON

Login

Don't have an account? Register now (free) for customized features, flight alerts, and more!